Dawson Community Airport Glendive US
ICAO: KGDV
IATA: GDV
Category: Medium
Scheduled Services: No

Elevation: 2458 ft
TransAlt. 18000 ft.

Airport Communications:
AWOS 3:135.075
GREAT FALLS RDO:122.55
CTAF/UNICOM:122.8

KGDV Zoom In..

If you have problems with the map follow the link
https://www.worldairports.se/pages/airport.php?
ICAO=KGDV

Runways:

(A) RW 02 length 3002 ft width 60 ft
---- / hdg 23

(B) RW 12 length 5704 ft width 100 ft
---- / hdg 123

(C) RW 20 length 3002 ft width 60 ft
---- / hdg 203

(D) RW 30 length 5704 ft width 100 ft
---- / hdg 303

Location; KGDV
Day. 14 / Time. 17.56 Zulu
* Altimeter: 29.89
* Temperature: -13° c. -8.6°f.
* Wind from: 030° Speed 06 kn.
Dewpoint: -16° c.
Visibility: 9 Statute Miles.
Clouds: Overcast 1300 ft.
Conditions: Light Snow.

KGDV 141756Z AUTO 03006KT 9SM -SN OVC013 M13/M16 A2989 RMK AO2 SNB39 SLP177 P0000 60000 T11331156 11133 21167 56007 FZRANO


Wind From 030°
Speed 06 kn.

 
 
jpsmedia worldairports.se 2019   terms of use